sensor_id;sensor_type;location;lat;lon;timestamp;P1;durP1;ratioP1;P2;durP2;ratioP2
51866;SDS011;52862;52.504;13.480;2022-12-18T00:02:14;96.90;;;26.67;;
51866;SDS011;52862;52.504;13.480;2022-12-18T00:04:41;92.43;;;24.27;;
51866;SDS011;52862;52.504;13.480;2022-12-18T00:07:08;96.53;;;26.70;;
51866;SDS011;52862;52.504;13.480;2022-12-18T00:09:36;87.57;;;23.77;;
51866;SDS011;52862;52.504;13.480;2022-12-18T00:12:05;107.30;;;26.47;;
51866;SDS011;52862;52.504;13.480;2022-12-18T00:14:44;102.33;;;24.63;;
51866;SDS011;52862;52.504;13.480;2022-12-18T00:17:10;84.00;;;24.63;;
51866;SDS011;52862;52.504;13.480;2022-12-18T00:19:37;85.63;;;24.90;;
51866;SDS011;52862;52.504;13.480;2022-12-18T00:22:04;83.30;;;24.30;;
51866;SDS011;52862;52.504;13.480;2022-12-18T00:24:31;90.17;;;23.73;;
51866;SDS011;52862;52.504;13.480;2022-12-18T00:26:58;83.17;;;23.40;;
51866;SDS011;52862;52.504;13.480;2022-12-18T00:29:25;99.97;;;24.33;;
51866;SDS011;52862;52.504;13.480;2022-12-18T00:31:51;86.57;;;26.53;;
51866;SDS011;52862;52.504;13.480;2022-12-18T00:34:18;64.67;;;21.70;;
51866;SDS011;52862;52.504;13.480;2022-12-18T00:36:46;73.23;;;22.40;;
51866;SDS011;52862;52.504;13.480;2022-12-18T00:39:14;76.60;;;24.07;;
51866;SDS011;52862;52.504;13.480;2022-12-18T00:41:41;79.47;;;21.23;;
51866;SDS011;52862;52.504;13.480;2022-12-18T00:44:26;80.67;;;20.13;;
51866;SDS011;52862;52.504;13.480;2022-12-18T00:46:52;73.67;;;22.57;;
51866;SDS011;52862;52.504;13.480;2022-12-18T00:49:19;85.77;;;22.93;;
51866;SDS011;52862;52.504;13.480;2022-12-18T00:51:46;74.93;;;21.87;;
51866;SDS011;52862;52.504;13.480;2022-12-18T00:54:14;81.67;;;25.07;;
51866;SDS011;52862;52.504;13.480;2022-12-18T00:56:41;83.77;;;24.67;;
51866;SDS011;52862;52.504;13.480;2022-12-18T00:59:15;85.00;;;23.37;;
51866;SDS011;52862;52.504;13.480;2022-12-18T01:01:41;81.77;;;24.13;;
51866;SDS011;52862;52.504;13.480;2022-12-18T01:04:08;94.37;;;27.07;;
51866;SDS011;52862;52.504;13.480;2022-12-18T01:06:35;90.70;;;25.67;;
51866;SDS011;52862;52.504;13.480;2022-12-18T01:09:01;82.90;;;24.50;;
51866;SDS011;52862;52.504;13.480;2022-12-18T01:11:29;95.40;;;25.97;;
51866;SDS011;52862;52.504;13.480;2022-12-18T01:13:59;73.67;;;23.83;;
51866;SDS011;52862;52.504;13.480;2022-12-18T01:16:26;92.70;;;26.70;;
51866;SDS011;52862;52.504;13.480;2022-12-18T01:18:52;100.33;;;25.80;;
51866;SDS011;52862;52.504;13.480;2022-12-18T01:21:20;91.37;;;26.57;;
51866;SDS011;52862;52.504;13.480;2022-12-18T01:23:47;88.30;;;26.30;;
51866;SDS011;52862;52.504;13.480;2022-12-18T01:26:18;84.23;;;21.80;;
51866;SDS011;52862;52.504;13.480;2022-12-18T01:28:45;76.50;;;20.80;;
51866;SDS011;52862;52.504;13.480;2022-12-18T01:31:13;95.27;;;25.07;;
51866;SDS011;52862;52.504;13.480;2022-12-18T01:33:41;93.90;;;26.30;;
51866;SDS011;52862;52.504;13.480;2022-12-18T01:36:14;92.43;;;26.83;;
51866;SDS011;52862;52.504;13.480;2022-12-18T01:38:42;99.40;;;23.43;;
51866;SDS011;52862;52.504;13.480;2022-12-18T01:41:08;99.40;;;25.93;;
51866;SDS011;52862;52.504;13.480;2022-12-18T01:43:47;98.40;;;26.67;;
51866;SDS011;52862;52.504;13.480;2022-12-18T01:46:16;102.27;;;28.17;;
51866;SDS011;52862;52.504;13.480;2022-12-18T01:48:44;130.73;;;33.23;;
51866;SDS011;52862;52.504;13.480;2022-12-18T01:51:12;92.80;;;25.07;;
51866;SDS011;52862;52.504;13.480;2022-12-18T01:53:42;126.20;;;34.33;;
51866;SDS011;52862;52.504;13.480;2022-12-18T01:56:12;128.23;;;33.50;;
51866;SDS011;52862;52.504;13.480;2022-12-18T01:58:43;132.40;;;31.30;;
51866;SDS011;52862;52.504;13.480;2022-12-18T02:01:16;138.57;;;34.53;;
51866;SDS011;52862;52.504;13.480;2022-12-18T02:03:43;125.53;;;30.80;;
51866;SDS011;52862;52.504;13.480;2022-12-18T02:06:12;118.27;;;32.43;;
51866;SDS011;52862;52.504;13.480;2022-12-18T02:08:45;119.90;;;31.90;;
51866;SDS011;52862;52.504;13.480;2022-12-18T02:11:20;133.40;;;32.43;;
51866;SDS011;52862;52.504;13.480;2022-12-18T02:13:58;129.40;;;36.20;;
51866;SDS011;52862;52.504;13.480;2022-12-18T02:16:39;133.90;;;35.93;;
51866;SDS011;52862;52.504;13.480;2022-12-18T02:19:14;140.53;;;38.07;;
51866;SDS011;52862;52.504;13.480;2022-12-18T02:21:54;152.43;;;36.33;;
51866;SDS011;52862;52.504;13.480;2022-12-18T02:24:33;139.07;;;36.63;;
51866;SDS011;52862;52.504;13.480;2022-12-18T02:27:06;119.93;;;32.53;;
51866;SDS011;52862;52.504;13.480;2022-12-18T02:29:37;125.03;;;35.40;;
51866;SDS011;52862;52.504;13.480;2022-12-18T02:32:09;128.53;;;36.13;;
51866;SDS011;52862;52.504;13.480;2022-12-18T02:34:39;134.63;;;29.97;;
51866;SDS011;52862;52.504;13.480;2022-12-18T02:37:07;125.33;;;32.27;;
51866;SDS011;52862;52.504;13.480;2022-12-18T02:39:38;121.13;;;32.40;;
51866;SDS011;52862;52.504;13.480;2022-12-18T02:42:09;128.70;;;34.90;;
51866;SDS011;52862;52.504;13.480;2022-12-18T02:44:41;122.87;;;32.43;;
51866;SDS011;52862;52.504;13.480;2022-12-18T02:47:09;124.17;;;31.73;;
51866;SDS011;52862;52.504;13.480;2022-12-18T02:49:40;115.07;;;28.10;;
51866;SDS011;52862;52.504;13.480;2022-12-18T02:52:17;115.73;;;29.83;;
51866;SDS011;52862;52.504;13.480;2022-12-18T02:54:55;116.33;;;30.10;;
51866;SDS011;52862;52.504;13.480;2022-12-18T02:57:32;126.10;;;32.83;;
51866;SDS011;52862;52.504;13.480;2022-12-18T03:00:04;135.50;;;34.93;;
51866;SDS011;52862;52.504;13.480;2022-12-18T03:02:35;121.07;;;31.90;;
51866;SDS011;52862;52.504;13.480;2022-12-18T03:05:08;123.17;;;32.50;;
51866;SDS011;52862;52.504;13.480;2022-12-18T03:07:41;126.23;;;34.63;;
51866;SDS011;52862;52.504;13.480;2022-12-18T03:10:13;114.87;;;31.70;;
51866;SDS011;52862;52.504;13.480;2022-12-18T03:12:47;107.83;;;31.17;;
51866;SDS011;52862;52.504;13.480;2022-12-18T03:15:18;96.20;;;28.93;;
51866;SDS011;52862;52.504;13.480;2022-12-18T03:17:50;101.50;;;28.87;;
51866;SDS011;52862;52.504;13.480;2022-12-18T03:20:21;100.53;;;28.43;;
51866;SDS011;52862;52.504;13.480;2022-12-18T03:22:51;108.07;;;29.20;;
51866;SDS011;52862;52.504;13.480;2022-12-18T03:25:21;93.47;;;28.63;;
51866;SDS011;52862;52.504;13.480;2022-12-18T03:27:53;104.63;;;29.83;;
51866;SDS011;52862;52.504;13.480;2022-12-18T03:30:23;102.43;;;26.90;;
51866;SDS011;52862;52.504;13.480;2022-12-18T03:32:53;98.47;;;26.80;;
51866;SDS011;52862;52.504;13.480;2022-12-18T03:35:29;98.80;;;25.50;;
51866;SDS011;52862;52.504;13.480;2022-12-18T03:37:58;100.10;;;26.10;;
51866;SDS011;52862;52.504;13.480;2022-12-18T03:40:26;89.33;;;26.43;;
51866;SDS011;52862;52.504;13.480;2022-12-18T03:42:59;90.87;;;25.50;;
51866;SDS011;52862;52.504;13.480;2022-12-18T03:45:31;100.13;;;25.87;;
51866;SDS011;52862;52.504;13.480;2022-12-18T03:48:02;102.27;;;29.17;;
51866;SDS011;52862;52.504;13.480;2022-12-18T03:50:36;99.27;;;25.97;;
51866;SDS011;52862;52.504;13.480;2022-12-18T03:53:11;102.33;;;26.10;;
51866;SDS011;52862;52.504;13.480;2022-12-18T03:55:45;69.00;;;21.70;;
51866;SDS011;52862;52.504;13.480;2022-12-18T03:58:17;100.87;;;26.13;;
51866;SDS011;52862;52.504;13.480;2022-12-18T04:00:45;96.73;;;26.10;;
51866;SDS011;52862;52.504;13.480;2022-12-18T04:03:13;89.63;;;23.23;;
51866;SDS011;52862;52.504;13.480;2022-12-18T04:05:42;73.47;;;22.67;;
51866;SDS011;52862;52.504;13.480;2022-12-18T04:08:09;84.53;;;23.77;;
51866;SDS011;52862;52.504;13.480;2022-12-18T04:10:36;82.70;;;24.73;;
51866;SDS011;52862;52.504;13.480;2022-12-18T04:13:03;103.40;;;26.33;;
51866;SDS011;52862;52.504;13.480;2022-12-18T04:15:30;78.67;;;24.07;;
51866;SDS011;52862;52.504;13.480;2022-12-18T04:18:00;90.53;;;24.70;;
51866;SDS011;52862;52.504;13.480;2022-12-18T04:20:27;86.80;;;23.87;;
51866;SDS011;52862;52.504;13.480;2022-12-18T04:22:54;78.13;;;22.27;;
51866;SDS011;52862;52.504;13.480;2022-12-18T04:25:20;73.30;;;23.57;;
51866;SDS011;52862;52.504;13.480;2022-12-18T04:27:47;59.47;;;17.73;;
51866;SDS011;52862;52.504;13.480;2022-12-18T04:30:14;85.17;;;22.43;;
51866;SDS011;52862;52.504;13.480;2022-12-18T04:32:41;79.30;;;23.20;;
51866;SDS011;52862;52.504;13.480;2022-12-18T04:35:10;90.57;;;24.10;;
51866;SDS011;52862;52.504;13.480;2022-12-18T04:37:37;89.53;;;24.53;;
51866;SDS011;52862;52.504;13.480;2022-12-18T04:40:04;76.97;;;22.50;;
51866;SDS011;52862;52.504;13.480;2022-12-18T04:42:31;81.37;;;23.77;;
51866;SDS011;52862;52.504;13.480;2022-12-18T04:44:58;91.23;;;25.50;;
51866;SDS011;52862;52.504;13.480;2022-12-18T04:47:24;73.13;;;23.53;;
51866;SDS011;52862;52.504;13.480;2022-12-18T04:49:52;72.97;;;24.63;;
51866;SDS011;52862;52.504;13.480;2022-12-18T04:52:18;89.37;;;26.83;;
51866;SDS011;52862;52.504;13.480;2022-12-18T04:54:45;86.50;;;24.40;;
51866;SDS011;52862;52.504;13.480;2022-12-18T04:57:11;78.47;;;23.10;;
51866;SDS011;52862;52.504;13.480;2022-12-18T04:59:38;73.83;;;23.50;;
51866;SDS011;52862;52.504;13.480;2022-12-18T05:02:05;89.47;;;23.70;;
51866;SDS011;52862;52.504;13.480;2022-12-18T05:04:32;89.30;;;24.37;;
51866;SDS011;52862;52.504;13.480;2022-12-18T05:06:59;85.83;;;23.57;;
51866;SDS011;52862;52.504;13.480;2022-12-18T05:09:26;86.50;;;25.83;;
51866;SDS011;52862;52.504;13.480;2022-12-18T05:11:52;76.73;;;21.37;;
51866;SDS011;52862;52.504;13.480;2022-12-18T05:14:19;91.73;;;22.20;;
51866;SDS011;52862;52.504;13.480;2022-12-18T05:16:46;88.77;;;23.00;;
51866;SDS011;52862;52.504;13.480;2022-12-18T05:19:12;103.33;;;26.67;;
51866;SDS011;52862;52.504;13.480;2022-12-18T05:21:39;104.07;;;26.57;;
51866;SDS011;52862;52.504;13.480;2022-12-18T05:24:06;106.77;;;26.97;;
51866;SDS011;52862;52.504;13.480;2022-12-18T05:26:33;96.20;;;25.63;;
51866;SDS011;52862;52.504;13.480;2022-12-18T05:29:00;99.60;;;27.33;;
51866;SDS011;52862;52.504;13.480;2022-12-18T05:31:26;114.10;;;26.60;;
51866;SDS011;52862;52.504;13.480;2022-12-18T05:33:57;102.70;;;26.97;;
51866;SDS011;52862;52.504;13.480;2022-12-18T05:36:23;106.50;;;24.87;;
51866;SDS011;52862;52.504;13.480;2022-12-18T05:38:50;108.53;;;27.93;;
51866;SDS011;52862;52.504;13.480;2022-12-18T05:41:17;108.63;;;28.33;;
51866;SDS011;52862;52.504;13.480;2022-12-18T05:43:44;108.70;;;28.93;;
51866;SDS011;52862;52.504;13.480;2022-12-18T05:46:11;133.43;;;30.23;;
51866;SDS011;52862;52.504;13.480;2022-12-18T05:48:39;120.37;;;28.57;;
51866;SDS011;52862;52.504;13.480;2022-12-18T05:51:07;118.73;;;29.83;;
51866;SDS011;52862;52.504;13.480;2022-12-18T05:53:35;116.10;;;28.77;;
51866;SDS011;52862;52.504;13.480;2022-12-18T05:56:04;132.97;;;30.27;;
51866;SDS011;52862;52.504;13.480;2022-12-18T05:58:32;115.23;;;29.57;;
51866;SDS011;52862;52.504;13.480;2022-12-18T06:01:05;120.20;;;31.30;;
51866;SDS011;52862;52.504;13.480;2022-12-18T06:03:34;113.87;;;29.33;;
51866;SDS011;52862;52.504;13.480;2022-12-18T06:06:00;115.57;;;28.73;;
51866;SDS011;52862;52.504;13.480;2022-12-18T06:08:27;112.57;;;28.33;;
51866;SDS011;52862;52.504;13.480;2022-12-18T06:10:54;110.07;;;28.47;;
51866;SDS011;52862;52.504;13.480;2022-12-18T06:13:20;115.53;;;30.93;;
51866;SDS011;52862;52.504;13.480;2022-12-18T06:15:48;110.87;;;30.00;;
51866;SDS011;52862;52.504;13.480;2022-12-18T06:18:14;102.67;;;28.47;;
51866;SDS011;52862;52.504;13.480;2022-12-18T06:20:41;110.37;;;31.73;;
51866;SDS011;52862;52.504;13.480;2022-12-18T06:23:08;95.50;;;26.77;;
51866;SDS011;52862;52.504;13.480;2022-12-18T06:25:36;98.20;;;28.93;;
51866;SDS011;52862;52.504;13.480;2022-12-18T06:28:05;106.10;;;27.33;;
51866;SDS011;52862;52.504;13.480;2022-12-18T06:30:31;98.10;;;27.40;;
51866;SDS011;52862;52.504;13.480;2022-12-18T06:32:59;111.97;;;30.13;;
51866;SDS011;52862;52.504;13.480;2022-12-18T06:35:25;99.83;;;28.23;;
51866;SDS011;52862;52.504;13.480;2022-12-18T06:37:52;111.20;;;29.77;;
51866;SDS011;52862;52.504;13.480;2022-12-18T06:40:19;92.17;;;27.77;;
51866;SDS011;52862;52.504;13.480;2022-12-18T06:42:45;100.57;;;28.80;;
51866;SDS011;52862;52.504;13.480;2022-12-18T06:45:12;104.63;;;27.37;;
51866;SDS011;52862;52.504;13.480;2022-12-18T06:47:42;106.70;;;28.50;;
51866;SDS011;52862;52.504;13.480;2022-12-18T06:50:09;89.67;;;25.57;;
51866;SDS011;52862;52.504;13.480;2022-12-18T06:52:36;102.03;;;28.20;;
51866;SDS011;52862;52.504;13.480;2022-12-18T06:55:04;112.83;;;29.57;;
51866;SDS011;52862;52.504;13.480;2022-12-18T06:57:34;124.80;;;30.97;;
51866;SDS011;52862;52.504;13.480;2022-12-18T07:00:02;115.40;;;30.07;;
51866;SDS011;52862;52.504;13.480;2022-12-18T07:02:30;114.53;;;31.77;;
51866;SDS011;52862;52.504;13.480;2022-12-18T07:04:56;123.97;;;31.20;;
51866;SDS011;52862;52.504;13.480;2022-12-18T07:07:24;97.37;;;29.47;;
51866;SDS011;52862;52.504;13.480;2022-12-18T07:09:50;120.37;;;31.57;;
51866;SDS011;52862;52.504;13.480;2022-12-18T07:12:17;114.40;;;29.83;;
51866;SDS011;52862;52.504;13.480;2022-12-18T07:14:44;126.03;;;29.67;;
51866;SDS011;52862;52.504;13.480;2022-12-18T07:17:10;123.27;;;30.53;;
51866;SDS011;52862;52.504;13.480;2022-12-18T07:19:37;96.17;;;27.77;;
51866;SDS011;52862;52.504;13.480;2022-12-18T07:22:03;101.30;;;26.67;;
51866;SDS011;52862;52.504;13.480;2022-12-18T07:24:32;112.37;;;29.53;;
51866;SDS011;52862;52.504;13.480;2022-12-18T07:26:59;108.60;;;28.73;;
51866;SDS011;52862;52.504;13.480;2022-12-18T07:29:26;131.13;;;32.07;;
51866;SDS011;52862;52.504;13.480;2022-12-18T07:31:53;101.83;;;26.33;;
51866;SDS011;52862;52.504;13.480;2022-12-18T07:34:19;112.07;;;29.13;;
51866;SDS011;52862;52.504;13.480;2022-12-18T07:36:46;116.47;;;28.33;;
51866;SDS011;52862;52.504;13.480;2022-12-18T07:39:13;120.80;;;30.73;;
51866;SDS011;52862;52.504;13.480;2022-12-18T07:41:40;107.80;;;28.40;;
51866;SDS011;52862;52.504;13.480;2022-12-18T07:44:12;111.53;;;28.73;;
51866;SDS011;52862;52.504;13.480;2022-12-18T07:46:39;103.83;;;28.53;;
51866;SDS011;52862;52.504;13.480;2022-12-18T07:49:06;96.73;;;28.60;;
51866;SDS011;52862;52.504;13.480;2022-12-18T07:51:33;109.33;;;29.03;;
51866;SDS011;52862;52.504;13.480;2022-12-18T07:54:00;106.00;;;30.60;;
51866;SDS011;52862;52.504;13.480;2022-12-18T07:56:26;101.53;;;25.97;;
51866;SDS011;52862;52.504;13.480;2022-12-18T07:58:56;105.90;;;25.13;;
51866;SDS011;52862;52.504;13.480;2022-12-18T08:01:24;99.70;;;28.23;;
51866;SDS011;52862;52.504;13.480;2022-12-18T08:03:52;99.53;;;28.70;;
51866;SDS011;52862;52.504;13.480;2022-12-18T08:06:18;100.27;;;29.90;;
51866;SDS011;52862;52.504;13.480;2022-12-18T08:08:50;83.67;;;25.70;;
51866;SDS011;52862;52.504;13.480;2022-12-18T08:11:17;81.73;;;23.00;;
51866;SDS011;52862;52.504;13.480;2022-12-18T08:13:44;85.50;;;23.30;;
51866;SDS011;52862;52.504;13.480;2022-12-18T08:16:12;79.17;;;24.13;;
51866;SDS011;52862;52.504;13.480;2022-12-18T08:18:38;100.53;;;27.67;;
51866;SDS011;52862;52.504;13.480;2022-12-18T08:21:08;78.00;;;23.73;;
51866;SDS011;52862;52.504;13.480;2022-12-18T08:23:35;98.10;;;25.30;;
51866;SDS011;52862;52.504;13.480;2022-12-18T08:26:08;93.33;;;24.57;;
51866;SDS011;52862;52.504;13.480;2022-12-18T08:28:34;78.80;;;24.47;;
51866;SDS011;52862;52.504;13.480;2022-12-18T08:31:01;91.07;;;26.47;;
51866;SDS011;52862;52.504;13.480;2022-12-18T08:33:29;88.93;;;25.77;;
51866;SDS011;52862;52.504;13.480;2022-12-18T08:35:55;85.07;;;24.30;;
51866;SDS011;52862;52.504;13.480;2022-12-18T08:38:23;82.30;;;26.47;;
51866;SDS011;52862;52.504;13.480;2022-12-18T08:40:53;93.07;;;26.73;;
51866;SDS011;52862;52.504;13.480;2022-12-18T08:43:24;87.07;;;27.50;;
51866;SDS011;52862;52.504;13.480;2022-12-18T08:46:08;87.47;;;25.83;;
51866;SDS011;52862;52.504;13.480;2022-12-18T08:48:36;92.60;;;27.37;;
51866;SDS011;52862;52.504;13.480;2022-12-18T08:51:03;88.93;;;25.20;;
51866;SDS011;52862;52.504;13.480;2022-12-18T08:53:29;82.90;;;25.47;;
51866;SDS011;52862;52.504;13.480;2022-12-18T08:56:01;88.37;;;25.90;;
51866;SDS011;52862;52.504;13.480;2022-12-18T08:58:28;86.23;;;26.40;;
51866;SDS011;52862;52.504;13.480;2022-12-18T09:00:59;88.00;;;25.77;;
51866;SDS011;52862;52.504;13.480;2022-12-18T09:03:26;81.00;;;25.23;;
51866;SDS011;52862;52.504;13.480;2022-12-18T09:05:53;98.10;;;25.63;;
51866;SDS011;52862;52.504;13.480;2022-12-18T09:08:19;86.03;;;26.47;;
51866;SDS011;52862;52.504;13.480;2022-12-18T09:10:47;94.17;;;27.17;;
51866;SDS011;52862;52.504;13.480;2022-12-18T09:13:15;87.03;;;26.40;;
51866;SDS011;52862;52.504;13.480;2022-12-18T09:15:42;80.40;;;27.97;;
51866;SDS011;52862;52.504;13.480;2022-12-18T09:18:11;87.17;;;23.43;;
51866;SDS011;52862;52.504;13.480;2022-12-18T09:20:38;86.63;;;25.00;;
51866;SDS011;52862;52.504;13.480;2022-12-18T09:23:06;85.80;;;25.10;;
51866;SDS011;52862;52.504;13.480;2022-12-18T09:25:33;96.03;;;25.10;;
51866;SDS011;52862;52.504;13.480;2022-12-18T09:28:01;101.60;;;26.93;;
51866;SDS011;52862;52.504;13.480;2022-12-18T09:30:28;92.00;;;27.40;;
51866;SDS011;52862;52.504;13.480;2022-12-18T09:32:56;89.17;;;26.80;;
51866;SDS011;52862;52.504;13.480;2022-12-18T09:35:23;96.10;;;28.13;;
51866;SDS011;52862;52.504;13.480;2022-12-18T09:37:49;93.90;;;26.83;;
51866;SDS011;52862;52.504;13.480;2022-12-18T09:40:18;98.60;;;27.17;;
51866;SDS011;52862;52.504;13.480;2022-12-18T09:42:47;103.63;;;28.17;;
51866;SDS011;52862;52.504;13.480;2022-12-18T09:45:18;107.53;;;28.20;;
51866;SDS011;52862;52.504;13.480;2022-12-18T09:47:45;96.93;;;26.63;;
51866;SDS011;52862;52.504;13.480;2022-12-18T09:50:17;91.67;;;26.97;;
51866;SDS011;52862;52.504;13.480;2022-12-18T09:52:53;91.63;;;26.13;;
51866;SDS011;52862;52.504;13.480;2022-12-18T09:55:24;90.23;;;24.77;;
51866;SDS011;52862;52.504;13.480;2022-12-18T09:58:02;81.70;;;25.07;;
51866;SDS011;52862;52.504;13.480;2022-12-18T10:00:32;108.23;;;28.73;;
51866;SDS011;52862;52.504;13.480;2022-12-18T10:03:00;98.63;;;28.00;;
51866;SDS011;52862;52.504;13.480;2022-12-18T10:05:36;101.80;;;29.07;;
51866;SDS011;52862;52.504;13.480;2022-12-18T10:08:08;88.50;;;25.93;;
51866;SDS011;52862;52.504;13.480;2022-12-18T10:10:42;91.03;;;26.90;;
51866;SDS011;52862;52.504;13.480;2022-12-18T10:13:16;113.43;;;29.53;;
51866;SDS011;52862;52.504;13.480;2022-12-18T10:15:52;93.67;;;25.40;;
51866;SDS011;52862;52.504;13.480;2022-12-18T10:18:29;116.97;;;30.20;;
51866;SDS011;52862;52.504;13.480;2022-12-18T10:21:08;104.97;;;29.00;;
51866;SDS011;52862;52.504;13.480;2022-12-18T10:23:39;100.50;;;25.10;;
51866;SDS011;52862;52.504;13.480;2022-12-18T10:26:14;87.10;;;24.17;;
51866;SDS011;52862;52.504;13.480;2022-12-18T10:28:41;112.10;;;30.43;;
51866;SDS011;52862;52.504;13.480;2022-12-18T10:31:12;98.93;;;26.17;;
51866;SDS011;52862;52.504;13.480;2022-12-18T10:33:42;117.60;;;29.50;;
51866;SDS011;52862;52.504;13.480;2022-12-18T10:36:09;107.07;;;27.07;;
51866;SDS011;52862;52.504;13.480;2022-12-18T10:38:35;90.10;;;26.60;;
51866;SDS011;52862;52.504;13.480;2022-12-18T10:41:04;102.33;;;30.13;;
51866;SDS011;52862;52.504;13.480;2022-12-18T10:43:33;109.00;;;29.27;;
51866;SDS011;52862;52.504;13.480;2022-12-18T10:46:07;98.60;;;25.20;;
51866;SDS011;52862;52.504;13.480;2022-12-18T10:48:40;112.80;;;28.53;;
51866;SDS011;52862;52.504;13.480;2022-12-18T10:51:19;106.83;;;29.93;;
51866;SDS011;52862;52.504;13.480;2022-12-18T10:53:53;126.23;;;30.27;;
51866;SDS011;52862;52.504;13.480;2022-12-18T10:56:23;94.30;;;28.37;;
51866;SDS011;52862;52.504;13.480;2022-12-18T10:58:56;93.73;;;27.63;;
51866;SDS011;52862;52.504;13.480;2022-12-18T11:01:26;98.40;;;26.63;;
51866;SDS011;52862;52.504;13.480;2022-12-18T11:04:15;91.53;;;25.77;;
51866;SDS011;52862;52.504;13.480;2022-12-18T11:07:16;90.67;;;25.23;;
51866;SDS011;52862;52.504;13.480;2022-12-18T11:09:43;111.93;;;28.37;;
51866;SDS011;52862;52.504;13.480;2022-12-18T11:12:29;93.20;;;27.17;;
51866;SDS011;52862;52.504;13.480;2022-12-18T11:14:56;97.57;;;27.33;;
51866;SDS011;52862;52.504;13.480;2022-12-18T11:17:27;83.47;;;26.00;;
51866;SDS011;52862;52.504;13.480;2022-12-18T11:19:56;79.87;;;25.20;;
51866;SDS011;52862;52.504;13.480;2022-12-18T11:22:24;77.27;;;24.87;;
51866;SDS011;52862;52.504;13.480;2022-12-18T11:24:54;86.83;;;24.70;;
51866;SDS011;52862;52.504;13.480;2022-12-18T11:27:47;77.63;;;23.87;;
51866;SDS011;52862;52.504;13.480;2022-12-18T11:30:21;78.50;;;24.03;;
51866;SDS011;52862;52.504;13.480;2022-12-18T11:32:49;72.67;;;24.73;;
51866;SDS011;52862;52.504;13.480;2022-12-18T11:35:20;82.83;;;21.70;;
51866;SDS011;52862;52.504;13.480;2022-12-18T11:37:53;93.67;;;22.87;;
51866;SDS011;52862;52.504;13.480;2022-12-18T11:40:26;80.07;;;25.17;;
51866;SDS011;52862;52.504;13.480;2022-12-18T11:43:06;78.70;;;22.30;;
51866;SDS011;52862;52.504;13.480;2022-12-18T11:45:40;72.23;;;23.20;;
51866;SDS011;52862;52.504;13.480;2022-12-18T11:48:14;77.70;;;24.37;;
51866;SDS011;52862;52.504;13.480;2022-12-18T11:50:46;74.50;;;21.87;;
51866;SDS011;52862;52.504;13.480;2022-12-18T11:53:16;79.93;;;23.47;;
51866;SDS011;52862;52.504;13.480;2022-12-18T11:55:47;81.33;;;23.97;;
51866;SDS011;52862;52.504;13.480;2022-12-18T11:58:25;71.00;;;22.77;;
51866;SDS011;52862;52.504;13.480;2022-12-18T12:01:01;73.57;;;22.93;;
51866;SDS011;52862;52.504;13.480;2022-12-18T12:03:59;75.50;;;21.50;;
51866;SDS011;52862;52.504;13.480;2022-12-18T12:06:46;67.20;;;22.03;;
51866;SDS011;52862;52.504;13.480;2022-12-18T12:09:27;63.33;;;19.87;;
51866;SDS011;52862;52.504;13.480;2022-12-18T12:12:03;70.83;;;22.43;;
51866;SDS011;52862;52.504;13.480;2022-12-18T12:14:45;64.33;;;22.97;;
51866;SDS011;52862;52.504;13.480;2022-12-18T12:17:19;85.50;;;23.17;;
51866;SDS011;52862;52.504;13.480;2022-12-18T12:19:53;80.50;;;25.03;;
51866;SDS011;52862;52.504;13.480;2022-12-18T12:22:32;88.60;;;25.77;;
51866;SDS011;52862;52.504;13.480;2022-12-18T12:25:07;80.67;;;25.27;;
51866;SDS011;52862;52.504;13.480;2022-12-18T12:27:48;70.43;;;22.63;;
51866;SDS011;52862;52.504;13.480;2022-12-18T12:30:24;73.63;;;23.47;;
51866;SDS011;52862;52.504;13.480;2022-12-18T12:33:04;76.53;;;22.20;;
51866;SDS011;52862;52.504;13.480;2022-12-18T12:35:43;67.33;;;22.33;;
51866;SDS011;52862;52.504;13.480;2022-12-18T12:45:16;71.93;;;23.73;;
51866;SDS011;52862;52.504;13.480;2022-12-18T12:47:47;71.50;;;23.87;;
51866;SDS011;52862;52.504;13.480;2022-12-18T12:50:18;83.37;;;24.03;;
51866;SDS011;52862;52.504;13.480;2022-12-18T12:52:48;67.00;;;22.40;;
51866;SDS011;52862;52.504;13.480;2022-12-18T12:55:19;73.80;;;24.10;;
51866;SDS011;52862;52.504;13.480;2022-12-18T12:57:52;83.40;;;24.50;;
51866;SDS011;52862;52.504;13.480;2022-12-18T13:00:25;73.37;;;24.00;;
51866;SDS011;52862;52.504;13.480;2022-12-18T13:02:59;104.63;;;25.40;;
51866;SDS011;52862;52.504;13.480;2022-12-18T13:05:34;70.80;;;25.03;;
51866;SDS011;52862;52.504;13.480;2022-12-18T13:08:09;71.17;;;24.27;;
51866;SDS011;52862;52.504;13.480;2022-12-18T13:10:38;68.60;;;23.00;;
51866;SDS011;52862;52.504;13.480;2022-12-18T13:13:06;73.23;;;23.83;;
51866;SDS011;52862;52.504;13.480;2022-12-18T13:15:37;70.77;;;23.03;;
51866;SDS011;52862;52.504;13.480;2022-12-18T13:18:10;77.33;;;24.87;;
51866;SDS011;52862;52.504;13.480;2022-12-18T13:20:48;68.07;;;21.33;;
51866;SDS011;52862;52.504;13.480;2022-12-18T13:23:29;65.17;;;21.80;;
51866;SDS011;52862;52.504;13.480;2022-12-18T13:29:04;64.00;;;21.00;;
51866;SDS011;52862;52.504;13.480;2022-12-18T13:34:46;65.10;;;22.83;;
51866;SDS011;52862;52.504;13.480;2022-12-18T13:43:30;61.47;;;20.97;;
51866;SDS011;52862;52.504;13.480;2022-12-18T13:46:17;77.73;;;25.67;;
51866;SDS011;52862;52.504;13.480;2022-12-18T13:48:50;66.13;;;24.20;;
51866;SDS011;52862;52.504;13.480;2022-12-18T13:51:20;72.10;;;23.93;;
51866;SDS011;52862;52.504;13.480;2022-12-18T13:53:49;70.53;;;25.47;;
51866;SDS011;52862;52.504;13.480;2022-12-18T13:56:20;81.07;;;26.73;;
51866;SDS011;52862;52.504;13.480;2022-12-18T14:01:43;73.03;;;24.07;;
51866;SDS011;52862;52.504;13.480;2022-12-18T14:04:17;76.90;;;28.87;;
51866;SDS011;52862;52.504;13.480;2022-12-18T14:06:47;83.90;;;28.77;;
51866;SDS011;52862;52.504;13.480;2022-12-18T14:09:17;76.13;;;26.30;;
51866;SDS011;52862;52.504;13.480;2022-12-18T14:11:49;81.47;;;29.80;;
51866;SDS011;52862;52.504;13.480;2022-12-18T14:14:17;83.47;;;29.43;;
51866;SDS011;52862;52.504;13.480;2022-12-18T14:16:45;67.97;;;25.87;;
51866;SDS011;52862;52.504;13.480;2022-12-18T14:19:14;49.97;;;20.37;;
51866;SDS011;52862;52.504;13.480;2022-12-18T14:21:45;69.67;;;25.13;;
51866;SDS011;52862;52.504;13.480;2022-12-18T14:24:13;74.83;;;25.70;;
51866;SDS011;52862;52.504;13.480;2022-12-18T14:26:46;65.23;;;25.53;;
51866;SDS011;52862;52.504;13.480;2022-12-18T14:29:23;70.90;;;26.80;;
51866;SDS011;52862;52.504;13.480;2022-12-18T14:32:09;83.33;;;26.60;;
51866;SDS011;52862;52.504;13.480;2022-12-18T14:34:43;61.67;;;22.47;;
51866;SDS011;52862;52.504;13.480;2022-12-18T14:37:11;65.63;;;21.70;;
51866;SDS011;52862;52.504;13.480;2022-12-18T14:39:40;48.93;;;19.17;;
51866;SDS011;52862;52.504;13.480;2022-12-18T14:42:18;64.10;;;21.70;;
51866;SDS011;52862;52.504;13.480;2022-12-18T14:44:44;56.50;;;22.97;;